sensor_id;sensor_type;location;lat;lon;timestamp;pressure;altitude;pressure_sealevel;temperature;humidity
69850;BME280;57144;39.652;-75.770;2022-08-19T00:01:15;100598.89;;;24.16;65.45
69850;BME280;57144;39.652;-75.770;2022-08-19T00:03:46;100599.72;;;24.20;65.58
69850;BME280;57144;39.652;-75.770;2022-08-19T00:06:16;100599.97;;;23.83;67.11
69850;BME280;57144;39.652;-75.770;2022-08-19T00:08:47;100601.75;;;23.97;66.14
69850;BME280;57144;39.652;-75.770;2022-08-19T00:11:18;100601.57;;;23.69;67.23
69850;BME280;57144;39.652;-75.770;2022-08-19T00:13:48;100602.49;;;23.84;66.54
69850;BME280;57144;39.652;-75.770;2022-08-19T00:16:19;100605.16;;;23.71;66.77
69850;BME280;57144;39.652;-75.770;2022-08-19T00:18:49;100604.63;;;23.36;67.65
69850;BME280;57144;39.652;-75.770;2022-08-19T00:21:20;100607.51;;;23.69;66.78
69850;BME280;57144;39.652;-75.770;2022-08-19T00:23:51;100608.76;;;23.78;66.35
69850;BME280;57144;39.652;-75.770;2022-08-19T00:26:21;100610.75;;;23.81;65.76
69850;BME280;57144;39.652;-75.770;2022-08-19T00:28:52;100613.96;;;23.69;65.67
69850;BME280;57144;39.652;-75.770;2022-08-19T00:31:23;100618.83;;;23.55;65.88
69850;BME280;57144;39.652;-75.770;2022-08-19T00:33:53;100622.65;;;23.09;67.51
69850;BME280;57144;39.652;-75.770;2022-08-19T00:36:24;100625.66;;;23.06;67.70
69850;BME280;57144;39.652;-75.770;2022-08-19T00:38:55;100625.53;;;23.40;66.92
69850;BME280;57144;39.652;-75.770;2022-08-19T00:41:26;100629.17;;;23.36;67.03
69850;BME280;57144;39.652;-75.770;2022-08-19T00:43:59;100629.23;;;23.43;66.69
69850;BME280;57144;39.652;-75.770;2022-08-19T00:46:26;100633.65;;;23.31;66.91
69850;BME280;57144;39.652;-75.770;2022-08-19T00:48:57;100640.05;;;23.33;66.98
69850;BME280;57144;39.652;-75.770;2022-08-19T00:51:30;100643.38;;;23.24;67.23
69850;BME280;57144;39.652;-75.770;2022-08-19T00:53:59;100645.20;;;22.76;68.68
69850;BME280;57144;39.652;-75.770;2022-08-19T00:56:29;100649.56;;;22.89;68.23
69850;BME280;57144;39.652;-75.770;2022-08-19T00:58:59;100650.43;;;22.59;69.20
69850;BME280;57144;39.652;-75.770;2022-08-19T01:01:30;100650.04;;;22.78;68.35
69850;BME280;57144;39.652;-75.770;2022-08-19T01:04:00;100652.10;;;22.87;68.25
69850;BME280;57144;39.652;-75.770;2022-08-19T01:06:31;100660.05;;;22.98;67.75
69850;BME280;57144;39.652;-75.770;2022-08-19T01:09:01;100664.85;;;22.97;67.34
69850;BME280;57144;39.652;-75.770;2022-08-19T01:11:35;100670.48;;;22.87;67.42
69850;BME280;57144;39.652;-75.770;2022-08-19T01:14:03;100675.24;;;22.80;67.65
69850;BME280;57144;39.652;-75.770;2022-08-19T01:16:34;100673.66;;;22.43;68.10
69850;BME280;57144;39.652;-75.770;2022-08-19T01:19:10;100679.03;;;22.40;68.64
69850;BME280;57144;39.652;-75.770;2022-08-19T01:21:39;100684.15;;;22.59;69.08
69850;BME280;57144;39.652;-75.770;2022-08-19T01:24:05;100685.38;;;22.50;69.96
69850;BME280;57144;39.652;-75.770;2022-08-19T01:26:40;100685.27;;;22.56;69.46
69850;BME280;57144;39.652;-75.770;2022-08-19T01:29:08;100689.03;;;22.31;70.56
69850;BME280;57144;39.652;-75.770;2022-08-19T01:31:37;100694.42;;;22.10;71.52
69850;BME280;57144;39.652;-75.770;2022-08-19T01:34:08;100695.59;;;22.16;71.05
69850;BME280;57144;39.652;-75.770;2022-08-19T01:36:41;100699.53;;;22.37;70.16
69850;BME280;57144;39.652;-75.770;2022-08-19T01:39:14;100705.25;;;22.38;70.17
69850;BME280;57144;39.652;-75.770;2022-08-19T01:41:40;100711.57;;;21.95;72.09
69850;BME280;57144;39.652;-75.770;2022-08-19T01:44:11;100711.18;;;21.71;74.44
69850;BME280;57144;39.652;-75.770;2022-08-19T01:46:42;100713.05;;;22.03;74.65
69850;BME280;57144;39.652;-75.770;2022-08-19T01:49:12;100709.98;;;22.18;75.04
69850;BME280;57144;39.652;-75.770;2022-08-19T01:51:42;100711.86;;;21.89;76.71
69850;BME280;57144;39.652;-75.770;2022-08-19T01:54:15;100712.44;;;22.01;76.73
69850;BME280;57144;39.652;-75.770;2022-08-19T01:56:44;100715.21;;;21.93;77.35
69850;BME280;57144;39.652;-75.770;2022-08-19T01:59:17;100717.00;;;22.02;77.29
69850;BME280;57144;39.652;-75.770;2022-08-19T02:01:45;100718.36;;;21.66;79.28
69850;BME280;57144;39.652;-75.770;2022-08-19T02:04:15;100717.44;;;21.75;79.03
69850;BME280;57144;39.652;-75.770;2022-08-19T02:06:46;100716.93;;;21.81;79.23
69850;BME280;57144;39.652;-75.770;2022-08-19T02:09:16;100717.74;;;21.36;81.67
69850;BME280;57144;39.652;-75.770;2022-08-19T02:11:47;100720.65;;;21.40;82.03
69850;BME280;57144;39.652;-75.770;2022-08-19T02:14:18;100721.09;;;21.37;82.77
69850;BME280;57144;39.652;-75.770;2022-08-19T02:16:48;100724.30;;;21.58;82.72
69850;BME280;57144;39.652;-75.770;2022-08-19T02:19:19;100723.32;;;21.30;84.62
69850;BME280;57144;39.652;-75.770;2022-08-19T02:21:49;100730.03;;;21.56;84.71
69850;BME280;57144;39.652;-75.770;2022-08-19T02:24:20;100732.24;;;21.48;85.44
69850;BME280;57144;39.652;-75.770;2022-08-19T02:26:51;100730.77;;;21.35;86.49
69850;BME280;57144;39.652;-75.770;2022-08-19T02:29:21;100735.91;;;21.66;85.20
69850;BME280;57144;39.652;-75.770;2022-08-19T02:31:52;100736.94;;;21.01;88.41
69850;BME280;57144;39.652;-75.770;2022-08-19T02:34:23;100737.53;;;21.35;86.64
69850;BME280;57144;39.652;-75.770;2022-08-19T02:36:53;100739.34;;;21.29;86.80
69850;BME280;57144;39.652;-75.770;2022-08-19T02:39:24;100739.91;;;21.14;87.48
69850;BME280;57144;39.652;-75.770;2022-08-19T02:41:55;100738.88;;;21.30;86.45
69850;BME280;57144;39.652;-75.770;2022-08-19T02:44:25;100742.17;;;20.79;88.59
69850;BME280;57144;39.652;-75.770;2022-08-19T02:46:56;100747.30;;;20.80;88.06
69850;BME280;57144;39.652;-75.770;2022-08-19T02:49:27;100750.81;;;20.88;87.51
69850;BME280;57144;39.652;-75.770;2022-08-19T02:51:58;100748.61;;;20.66;88.73
69850;BME280;57144;39.652;-75.770;2022-08-19T02:54:28;100747.23;;;20.74;88.09
69850;BME280;57144;39.652;-75.770;2022-08-19T02:56:59;100748.63;;;20.77;88.07
69850;BME280;57144;39.652;-75.770;2022-08-19T02:59:30;100750.28;;;20.93;87.38
69850;BME280;57144;39.652;-75.770;2022-08-19T03:02:00;100750.03;;;21.14;86.42
69850;BME280;57144;39.652;-75.770;2022-08-19T03:04:31;100749.04;;;21.25;85.77
69850;BME280;57144;39.652;-75.770;2022-08-19T03:07:01;100751.55;;;20.82;87.71
69850;BME280;57144;39.652;-75.770;2022-08-19T03:09:32;100752.48;;;20.80;88.13
69850;BME280;57144;39.652;-75.770;2022-08-19T03:12:03;100756.25;;;20.70;88.72
69850;BME280;57144;39.652;-75.770;2022-08-19T03:14:34;100758.90;;;20.99;87.57
69850;BME280;57144;39.652;-75.770;2022-08-19T03:17:05;100759.43;;;21.10;86.96
69850;BME280;57144;39.652;-75.770;2022-08-19T03:19:35;100757.47;;;20.71;88.94
69850;BME280;57144;39.652;-75.770;2022-08-19T03:22:06;100760.20;;;20.68;89.54
69850;BME280;57144;39.652;-75.770;2022-08-19T03:24:37;100759.38;;;20.60;90.65
69850;BME280;57144;39.652;-75.770;2022-08-19T03:27:07;100761.92;;;20.50;91.48
69850;BME280;57144;39.652;-75.770;2022-08-19T03:29:38;100764.98;;;20.41;91.86
69850;BME280;57144;39.652;-75.770;2022-08-19T03:32:09;100763.81;;;20.08;93.90
69850;BME280;57144;39.652;-75.770;2022-08-19T03:34:39;100760.17;;;20.13;93.83
69850;BME280;57144;39.652;-75.770;2022-08-19T03:37:10;100759.88;;;20.51;92.19
69850;BME280;57144;39.652;-75.770;2022-08-19T03:39:41;100760.90;;;20.56;91.96
69850;BME280;57144;39.652;-75.770;2022-08-19T03:42:11;100766.26;;;20.10;94.22
69850;BME280;57144;39.652;-75.770;2022-08-19T03:44:41;100764.17;;;20.21;93.73
69850;BME280;57144;39.652;-75.770;2022-08-19T03:47:12;100766.35;;;19.90;95.03
69850;BME280;57144;39.652;-75.770;2022-08-19T03:49:43;100771.59;;;19.85;93.78
69850;BME280;57144;39.652;-75.770;2022-08-19T03:52:13;100773.76;;;20.19;91.21
69850;BME280;57144;39.652;-75.770;2022-08-19T03:54:43;100772.92;;;19.94;91.33
69850;BME280;57144;39.652;-75.770;2022-08-19T03:57:14;100774.06;;;20.35;88.84
69850;BME280;57144;39.652;-75.770;2022-08-19T03:59:45;100774.95;;;20.18;88.74
69850;BME280;57144;39.652;-75.770;2022-08-19T04:02:15;100773.26;;;19.82;90.17
69850;BME280;57144;39.652;-75.770;2022-08-19T04:04:46;100770.32;;;20.16;88.38
69850;BME280;57144;39.652;-75.770;2022-08-19T04:07:17;100774.26;;;19.74;89.94
69850;BME280;57144;39.652;-75.770;2022-08-19T04:09:48;100772.23;;;19.60;90.19
69850;BME280;57144;39.652;-75.770;2022-08-19T04:12:18;100771.59;;;19.88;89.03
69850;BME280;57144;39.652;-75.770;2022-08-19T04:14:49;100775.74;;;19.98;88.20
69850;BME280;57144;39.652;-75.770;2022-08-19T04:17:19;100776.61;;;20.06;87.78
69850;BME280;57144;39.652;-75.770;2022-08-19T04:19:50;100776.12;;;19.88;88.74
69850;BME280;57144;39.652;-75.770;2022-08-19T04:22:21;100778.25;;;20.05;88.18
69850;BME280;57144;39.652;-75.770;2022-08-19T04:24:51;100783.30;;;19.96;88.76
69850;BME280;57144;39.652;-75.770;2022-08-19T04:27:22;100780.11;;;19.70;90.22
69850;BME280;57144;39.652;-75.770;2022-08-19T04:29:53;100782.23;;;19.65;90.51
69850;BME280;57144;39.652;-75.770;2022-08-19T04:32:24;100782.07;;;19.93;89.31
69850;BME280;57144;39.652;-75.770;2022-08-19T04:34:54;100785.11;;;19.71;90.39
69850;BME280;57144;39.652;-75.770;2022-08-19T04:37:25;100785.67;;;19.89;88.66
69850;BME280;57144;39.652;-75.770;2022-08-19T04:39:55;100787.38;;;19.90;88.44
69850;BME280;57144;39.652;-75.770;2022-08-19T04:42:26;100786.26;;;19.45;90.57
69850;BME280;57144;39.652;-75.770;2022-08-19T04:44:57;100784.35;;;19.60;89.63
69850;BME280;57144;39.652;-75.770;2022-08-19T04:47:27;100782.95;;;19.73;88.75
69850;BME280;57144;39.652;-75.770;2022-08-19T04:49:58;100781.38;;;19.87;88.18
69850;BME280;57144;39.652;-75.770;2022-08-19T04:52:28;100783.40;;;19.48;89.91
69850;BME280;57144;39.652;-75.770;2022-08-19T04:54:59;100783.92;;;19.49;88.38
69850;BME280;57144;39.652;-75.770;2022-08-19T04:57:30;100786.45;;;19.73;87.00
69850;BME280;57144;39.652;-75.770;2022-08-19T05:00:00;100792.04;;;19.81;86.80
69850;BME280;57144;39.652;-75.770;2022-08-19T05:02:31;100791.88;;;19.80;86.03
69850;BME280;57144;39.652;-75.770;2022-08-19T05:05:02;100787.47;;;19.76;85.72
69850;BME280;57144;39.652;-75.770;2022-08-19T05:07:32;100785.20;;;19.57;86.81
69850;BME280;57144;39.652;-75.770;2022-08-19T05:10:05;100788.89;;;19.48;87.42
69850;BME280;57144;39.652;-75.770;2022-08-19T05:12:34;100794.72;;;19.12;88.30
69850;BME280;57144;39.652;-75.770;2022-08-19T05:15:06;100793.20;;;19.28;87.69
69850;BME280;57144;39.652;-75.770;2022-08-19T05:17:35;100793.68;;;19.00;88.82
69850;BME280;57144;39.652;-75.770;2022-08-19T05:20:07;100793.50;;;19.52;86.10
69850;BME280;57144;39.652;-75.770;2022-08-19T05:22:36;100796.06;;;19.36;86.75
69850;BME280;57144;39.652;-75.770;2022-08-19T05:25:09;100800.37;;;19.36;86.74
69850;BME280;57144;39.652;-75.770;2022-08-19T05:27:38;100796.63;;;19.44;86.32
69850;BME280;57144;39.652;-75.770;2022-08-19T05:30:09;100800.43;;;19.28;86.95
69850;BME280;57144;39.652;-75.770;2022-08-19T05:32:39;100798.32;;;19.22;86.39
69850;BME280;57144;39.652;-75.770;2022-08-19T05:35:10;100799.93;;;19.29;85.92
69850;BME280;57144;39.652;-75.770;2022-08-19T05:37:40;100800.62;;;19.02;87.08
69850;BME280;57144;39.652;-75.770;2022-08-19T05:40:11;100799.57;;;19.54;84.39
69850;BME280;57144;39.652;-75.770;2022-08-19T05:42:41;100802.24;;;19.44;84.73
69850;BME280;57144;39.652;-75.770;2022-08-19T05:45:12;100805.27;;;19.33;85.57
69850;BME280;57144;39.652;-75.770;2022-08-19T05:47:42;100809.87;;;18.64;88.96
69850;BME280;57144;39.652;-75.770;2022-08-19T05:50:13;100812.02;;;19.12;87.02
69850;BME280;57144;39.652;-75.770;2022-08-19T05:52:44;100812.99;;;19.27;85.89
69850;BME280;57144;39.652;-75.770;2022-08-19T05:55:14;100812.24;;;19.05;87.14
69850;BME280;57144;39.652;-75.770;2022-08-19T05:57:45;100811.11;;;18.92;87.51
69850;BME280;57144;39.652;-75.770;2022-08-19T06:00:16;100815.13;;;18.96;87.43
69850;BME280;57144;39.652;-75.770;2022-08-19T06:02:46;100815.02;;;18.74;87.95
69850;BME280;57144;39.652;-75.770;2022-08-19T06:05:17;100823.31;;;18.93;87.53
69850;BME280;57144;39.652;-75.770;2022-08-19T06:07:47;100823.91;;;19.35;85.39
69850;BME280;57144;39.652;-75.770;2022-08-19T06:10:18;100823.86;;;19.03;86.70
69850;BME280;57144;39.652;-75.770;2022-08-19T06:12:49;100821.61;;;18.72;88.96
69850;BME280;57144;39.652;-75.770;2022-08-19T06:15:19;100824.44;;;18.43;89.88
69850;BME280;57144;39.652;-75.770;2022-08-19T06:17:50;100823.73;;;18.76;88.63
69850;BME280;57144;39.652;-75.770;2022-08-19T06:20:20;100824.65;;;18.89;87.62
69850;BME280;57144;39.652;-75.770;2022-08-19T06:22:51;100824.52;;;18.49;88.97
69850;BME280;57144;39.652;-75.770;2022-08-19T06:25:22;100822.93;;;19.08;86.20
69850;BME280;57144;39.652;-75.770;2022-08-19T06:27:52;100826.67;;;19.00;86.48
69850;BME280;57144;39.652;-75.770;2022-08-19T06:30:23;100824.49;;;19.21;85.51
69850;BME280;57144;39.652;-75.770;2022-08-19T06:32:54;100824.64;;;18.92;86.95
69850;BME280;57144;39.652;-75.770;2022-08-19T06:35:24;100818.12;;;19.00;86.70
69850;BME280;57144;39.652;-75.770;2022-08-19T06:37:55;100823.07;;;18.99;87.24
69850;BME280;57144;39.652;-75.770;2022-08-19T06:40:25;100824.52;;;18.77;88.58
69850;BME280;57144;39.652;-75.770;2022-08-19T06:42:56;100827.27;;;18.58;89.46
69850;BME280;57144;39.652;-75.770;2022-08-19T06:45:27;100830.51;;;18.40;90.90
69850;BME280;57144;39.652;-75.770;2022-08-19T06:47:58;100829.37;;;18.57;90.37
69850;BME280;57144;39.652;-75.770;2022-08-19T06:50:28;100829.01;;;18.64;90.87
69850;BME280;57144;39.652;-75.770;2022-08-19T06:52:59;100829.84;;;18.36;92.56
69850;BME280;57144;39.652;-75.770;2022-08-19T06:55:29;100835.32;;;18.35;92.69
69850;BME280;57144;39.652;-75.770;2022-08-19T06:58:02;100837.55;;;18.19;94.12
69850;BME280;57144;39.652;-75.770;2022-08-19T07:00:31;100841.03;;;18.33;93.71
69850;BME280;57144;39.652;-75.770;2022-08-19T07:03:02;100841.44;;;18.51;93.18
69850;BME280;57144;39.652;-75.770;2022-08-19T07:05:33;100841.44;;;18.36;94.01
69850;BME280;57144;39.652;-75.770;2022-08-19T07:08:03;100845.19;;;18.28;94.51
69850;BME280;57144;39.652;-75.770;2022-08-19T07:10:35;100846.57;;;18.45;93.87
69850;BME280;57144;39.652;-75.770;2022-08-19T07:13:04;100848.24;;;18.10;95.45
69850;BME280;57144;39.652;-75.770;2022-08-19T07:15:36;100848.41;;;18.35;94.57
69850;BME280;57144;39.652;-75.770;2022-08-19T07:18:06;100852.24;;;18.40;94.27
69850;BME280;57144;39.652;-75.770;2022-08-19T07:20:36;100851.08;;;18.62;92.96
69850;BME280;57144;39.652;-75.770;2022-08-19T07:23:07;100849.53;;;18.39;93.95
69850;BME280;57144;39.652;-75.770;2022-08-19T07:25:38;100852.43;;;18.34;94.67
69850;BME280;57144;39.652;-75.770;2022-08-19T07:28:09;100854.16;;;18.32;94.98
69850;BME280;57144;39.652;-75.770;2022-08-19T07:30:40;100856.36;;;18.62;93.60
69850;BME280;57144;39.652;-75.770;2022-08-19T07:33:10;100857.05;;;18.48;94.47
69850;BME280;57144;39.652;-75.770;2022-08-19T07:35:41;100864.20;;;18.56;94.15
69850;BME280;57144;39.652;-75.770;2022-08-19T07:38:11;100867.28;;;18.80;92.90
69850;BME280;57144;39.652;-75.770;2022-08-19T07:40:43;100866.04;;;18.68;93.41
69850;BME280;57144;39.652;-75.770;2022-08-19T07:43:13;100865.74;;;18.62;93.47
69850;BME280;57144;39.652;-75.770;2022-08-19T07:45:44;100865.90;;;18.40;94.43
69850;BME280;57144;39.652;-75.770;2022-08-19T07:48:14;100864.70;;;18.26;95.03
69850;BME280;57144;39.652;-75.770;2022-08-19T07:50:45;100863.93;;;18.09;94.94
69850;BME280;57144;39.652;-75.770;2022-08-19T07:53:15;100866.55;;;18.37;93.35
69850;BME280;57144;39.652;-75.770;2022-08-19T07:55:46;100870.13;;;18.26;93.17
69850;BME280;57144;39.652;-75.770;2022-08-19T07:58:20;100874.59;;;18.39;90.90
69850;BME280;57144;39.652;-75.770;2022-08-19T08:00:49;100869.65;;;17.53;98.13
69850;BME280;57144;39.652;-75.770;2022-08-19T08:03:20;100871.68;;;17.97;95.66
69850;BME280;57144;39.652;-75.770;2022-08-19T08:05:49;100867.97;;;17.94;95.72
69850;BME280;57144;39.652;-75.770;2022-08-19T08:08:19;100865.46;;;17.63;96.97
69850;BME280;57144;39.652;-75.770;2022-08-19T08:10:50;100868.41;;;17.97;95.45
69850;BME280;57144;39.652;-75.770;2022-08-19T08:13:21;100869.08;;;17.99;96.00
69850;BME280;57144;39.652;-75.770;2022-08-19T08:15:52;100867.25;;;17.74;97.04
69850;BME280;57144;39.652;-75.770;2022-08-19T08:18:23;100865.83;;;17.83;97.02
69850;BME280;57144;39.652;-75.770;2022-08-19T08:20:53;100872.33;;;17.52;98.46
69850;BME280;57144;39.652;-75.770;2022-08-19T08:23:24;100871.74;;;17.82;97.29
69850;BME280;57144;39.652;-75.770;2022-08-19T08:25:56;100873.45;;;18.06;95.71
69850;BME280;57144;39.652;-75.770;2022-08-19T08:28:26;100866.66;;;17.67;97.63
69850;BME280;57144;39.652;-75.770;2022-08-19T08:30:57;100868.59;;;18.04;95.73
69850;BME280;57144;39.652;-75.770;2022-08-19T08:33:28;100866.92;;;17.99;95.63
69850;BME280;57144;39.652;-75.770;2022-08-19T08:35:57;100870.25;;;18.09;94.97
69850;BME280;57144;39.652;-75.770;2022-08-19T08:38:27;100869.76;;;17.58;96.03
69850;BME280;57144;39.652;-75.770;2022-08-19T08:41:04;100871.52;;;18.04;93.50
69850;BME280;57144;39.652;-75.770;2022-08-19T08:43:32;100874.23;;;18.04;92.68
69850;BME280;57144;39.652;-75.770;2022-08-19T08:46:03;100870.49;;;17.91;93.84
69850;BME280;57144;39.652;-75.770;2022-08-19T08:48:37;100870.80;;;17.90;94.38
69850;BME280;57144;39.652;-75.770;2022-08-19T08:51:03;100878.86;;;18.05;93.52
69850;BME280;57144;39.652;-75.770;2022-08-19T08:53:32;100873.24;;;17.89;94.30
69850;BME280;57144;39.652;-75.770;2022-08-19T08:56:04;100875.56;;;17.92;92.97
69850;BME280;57144;39.652;-75.770;2022-08-19T08:58:39;100874.58;;;17.99;92.52
69850;BME280;57144;39.652;-75.770;2022-08-19T09:01:03;100876.23;;;18.05;92.70
69850;BME280;57144;39.652;-75.770;2022-08-19T09:03:34;100878.87;;;17.94;92.27
69850;BME280;57144;39.652;-75.770;2022-08-19T09:06:07;100881.25;;;17.96;91.88
69850;BME280;57144;39.652;-75.770;2022-08-19T09:08:43;100884.33;;;17.59;94.10
69850;BME280;57144;39.652;-75.770;2022-08-19T09:11:08;100883.36;;;18.10;93.66
69850;BME280;57144;39.652;-75.770;2022-08-19T09:13:44;100880.94;;;17.50;98.06
69850;BME280;57144;39.652;-75.770;2022-08-19T09:16:08;100880.96;;;17.31;98.68
69850;BME280;57144;39.652;-75.770;2022-08-19T09:18:40;100883.91;;;17.17;99.15
69850;BME280;57144;39.652;-75.770;2022-08-19T09:21:08;100891.07;;;17.57;96.41
69850;BME280;57144;39.652;-75.770;2022-08-19T09:23:38;100892.27;;;17.65;95.54
69850;BME280;57144;39.652;-75.770;2022-08-19T09:26:10;100893.70;;;17.60;96.04
69850;BME280;57144;39.652;-75.770;2022-08-19T09:28:40;100893.97;;;16.55;100.00
69850;BME280;57144;39.652;-75.770;2022-08-19T09:31:11;100895.04;;;16.13;100.00
69850;BME280;57144;39.652;-75.770;2022-08-19T09:33:41;100893.83;;;17.24;94.01
69850;BME280;57144;39.652;-75.770;2022-08-19T09:36:14;100893.43;;;17.18;92.47
69850;BME280;57144;39.652;-75.770;2022-08-19T09:38:42;100898.69;;;17.62;89.00
69850;BME280;57144;39.652;-75.770;2022-08-19T09:41:16;100896.66;;;17.88;86.86
69850;BME280;57144;39.652;-75.770;2022-08-19T09:43:47;100900.78;;;17.78;86.77
69850;BME280;57144;39.652;-75.770;2022-08-19T09:46:14;100903.07;;;17.74;86.76
69850;BME280;57144;39.652;-75.770;2022-08-19T09:48:44;100905.31;;;17.87;85.71
69850;BME280;57144;39.652;-75.770;2022-08-19T09:51:18;100910.61;;;17.76;86.39
69850;BME280;57144;39.652;-75.770;2022-08-19T09:53:47;100913.18;;;17.87;86.39
69850;BME280;57144;39.652;-75.770;2022-08-19T09:56:18;100916.08;;;17.80;87.06
69850;BME280;57144;39.652;-75.770;2022-08-19T09:58:47;100920.49;;;17.44;89.18
69850;BME280;57144;39.652;-75.770;2022-08-19T10:01:20;100925.26;;;17.74;87.71
69850;BME280;57144;39.652;-75.770;2022-08-19T10:03:51;100928.04;;;17.75;87.28
69850;BME280;57144;39.652;-75.770;2022-08-19T10:06:20;100926.36;;;17.42;88.71
69850;BME280;57144;39.652;-75.770;2022-08-19T10:08:51;100924.20;;;17.59;88.23
69850;BME280;57144;39.652;-75.770;2022-08-19T10:11:20;100925.35;;;17.63;88.47
69850;BME280;57144;39.652;-75.770;2022-08-19T10:13:51;100925.76;;;17.65;88.78
69850;BME280;57144;39.652;-75.770;2022-08-19T10:16:23;100925.84;;;17.57;88.27
69850;BME280;57144;39.652;-75.770;2022-08-19T10:18:53;100927.71;;;17.50;88.82
69850;BME280;57144;39.652;-75.770;2022-08-19T10:21:26;100931.78;;;17.70;87.80
69850;BME280;57144;39.652;-75.770;2022-08-19T10:23:55;100933.19;;;17.51;88.17
69850;BME280;57144;39.652;-75.770;2022-08-19T10:26:26;100938.09;;;17.64;87.70
69850;BME280;57144;39.652;-75.770;2022-08-19T10:28:55;100941.27;;;16.91;91.48
69850;BME280;57144;39.652;-75.770;2022-08-19T10:31:28;100946.27;;;17.54;89.25
69850;BME280;57144;39.652;-75.770;2022-08-19T10:33:56;100949.64;;;17.47;89.74
69850;BME280;57144;39.652;-75.770;2022-08-19T10:36:29;100951.78;;;17.55;87.31
69850;BME280;57144;39.652;-75.770;2022-08-19T10:38:59;100954.74;;;17.54;87.84
69850;BME280;57144;39.652;-75.770;2022-08-19T10:41:30;100954.47;;;17.60;88.02
69850;BME280;57144;39.652;-75.770;2022-08-19T10:44:01;100959.77;;;17.68;87.59
69850;BME280;57144;39.652;-75.770;2022-08-19T10:46:29;100961.08;;;17.76;86.88
69850;BME280;57144;39.652;-75.770;2022-08-19T10:49:00;100960.02;;;17.65;87.05
69850;BME280;57144;39.652;-75.770;2022-08-19T10:51:30;100959.99;;;17.74;87.37
69850;BME280;57144;39.652;-75.770;2022-08-19T10:54:01;100963.99;;;17.61;88.52
69850;BME280;57144;39.652;-75.770;2022-08-19T10:56:32;100968.86;;;17.84;88.01
69850;BME280;57144;39.652;-75.770;2022-08-19T10:59:02;100972.49;;;18.06;87.04
69850;BME280;57144;39.652;-75.770;2022-08-19T11:01:33;100972.89;;;17.84;87.99
69850;BME280;57144;39.652;-75.770;2022-08-19T11:04:04;100976.39;;;17.90;86.40
69850;BME280;57144;39.652;-75.770;2022-08-19T11:06:34;100976.31;;;18.11;85.64
69850;BME280;57144;39.652;-75.770;2022-08-19T11:09:05;100978.41;;;18.07;85.29
69850;BME280;57144;39.652;-75.770;2022-08-19T11:11:35;100978.17;;;18.20;84.99
69850;BME280;57144;39.652;-75.770;2022-08-19T11:14:05;100985.20;;;18.31;84.12
69850;BME280;57144;39.652;-75.770;2022-08-19T11:16:36;100986.22;;;18.22;85.95
69850;BME280;57144;39.652;-75.770;2022-08-19T11:19:08;100987.58;;;18.29;86.03
69850;BME280;57144;39.652;-75.770;2022-08-19T11:21:40;100990.35;;;18.34;85.29
69850;BME280;57144;39.652;-75.770;2022-08-19T11:24:10;100995.15;;;18.79;83.09
69850;BME280;57144;39.652;-75.770;2022-08-19T11:26:40;100996.56;;;18.83;82.32
69850;BME280;57144;39.652;-75.770;2022-08-19T11:29:11;101002.18;;;18.88;82.45
69850;BME280;57144;39.652;-75.770;2022-08-19T11:31:43;101010.42;;;18.96;82.51
69850;BME280;57144;39.652;-75.770;2022-08-19T11:34:14;101006.54;;;18.77;84.59
69850;BME280;57144;39.652;-75.770;2022-08-19T11:36:43;101009.72;;;18.85;84.15
69850;BME280;57144;39.652;-75.770;2022-08-19T11:39:13;101010.92;;;18.98;84.40
69850;BME280;57144;39.652;-75.770;2022-08-19T11:41:42;101011.56;;;19.05;83.74
69850;BME280;57144;39.652;-75.770;2022-08-19T11:44:13;101018.16;;;19.15;83.73
69850;BME280;57144;39.652;-75.770;2022-08-19T11:46:45;101017.19;;;19.53;81.26
69850;BME280;57144;39.652;-75.770;2022-08-19T11:49:14;101025.83;;;19.24;82.32
69850;BME280;57144;39.652;-75.770;2022-08-19T11:51:45;101030.54;;;19.09;82.85
69850;BME280;57144;39.652;-75.770;2022-08-19T11:54:15;101029.13;;;18.84;84.32
69850;BME280;57144;39.652;-75.770;2022-08-19T11:56:46;101032.38;;;18.81;84.49
69850;BME280;57144;39.652;-75.770;2022-08-19T11:59:16;101032.81;;;18.78;84.73
69850;BME280;57144;39.652;-75.770;2022-08-19T12:01:47;101039.28;;;18.94;84.41
69850;BME280;57144;39.652;-75.770;2022-08-19T12:04:18;101040.43;;;19.03;83.82
69850;BME280;57144;39.652;-75.770;2022-08-19T12:06:49;101041.98;;;19.04;84.45
69850;BME280;57144;39.652;-75.770;2022-08-19T12:09:19;101046.20;;;19.23;84.02
69850;BME280;57144;39.652;-75.770;2022-08-19T12:11:50;101048.88;;;19.51;83.19
69850;BME280;57144;39.652;-75.770;2022-08-19T12:14:20;101047.87;;;19.69;83.00
69850;BME280;57144;39.652;-75.770;2022-08-19T12:16:51;101050.49;;;19.63;83.06
69850;BME280;57144;39.652;-75.770;2022-08-19T12:19:22;101054.60;;;19.57;83.32
69850;BME280;57144;39.652;-75.770;2022-08-19T12:21:53;101060.30;;;19.92;82.38
69850;BME280;57144;39.652;-75.770;2022-08-19T12:24:23;101064.75;;;20.11;82.55
69850;BME280;57144;39.652;-75.770;2022-08-19T12:26:54;101060.41;;;19.88;83.46
69850;BME280;57144;39.652;-75.770;2022-08-19T12:29:25;101055.12;;;20.12;82.47
69850;BME280;57144;39.652;-75.770;2022-08-19T12:31:56;101051.31;;;20.27;82.18
69850;BME280;57144;39.652;-75.770;2022-08-19T12:34:26;101047.09;;;20.52;83.29
69850;BME280;57144;39.652;-75.770;2022-08-19T12:36:57;101046.83;;;20.50;82.32
69850;BME280;57144;39.652;-75.770;2022-08-19T12:39:27;101048.21;;;20.37;81.27
69850;BME280;57144;39.652;-75.770;2022-08-19T12:41:58;101047.72;;;20.34;81.00
69850;BME280;57144;39.652;-75.770;2022-08-19T12:44:28;101048.18;;;20.18;81.49
69850;BME280;57144;39.652;-75.770;2022-08-19T12:46:59;101050.96;;;20.22;82.29